Time;durP1;ratioP1;P1;durP2;ratioP2;P2;SDS_P1;SDS_P2;PMS_P1;PMS_P2;Temp;Humidity;BMP_temperature;BMP_pressure;BME280_temperature;BME280_humidity;BME280_pressure;Samples;Min_cycle;Max_cycle;Signal;HPM_P1;HPM_P2
2022/03/18 00:02:25;;;;;;;8.70;3.70;;;8.30;73.10;;;;;;5022846;28;20451;-43
2022/03/18 00:04:53;;;;;;;7.03;3.57;;;8.30;73.30;;;;;;5021478;28;20456;-43
2022/03/18 00:07:21;;;;;;;4.60;2.90;;;8.30;73.20;;;;;;5020689;28;20837;-43
2022/03/18 00:09:48;;;;;;;10.00;4.27;;;8.30;73.50;;;;;;5021514;28;20451;-43
2022/03/18 00:12:16;;;;;;;9.43;3.80;;;8.30;73.30;;;;;;5005721;28;20467;-43
2022/03/18 00:14:43;;;;;;;6.93;3.80;;;8.30;73.90;;;;;;5021884;28;20507;-43
2022/03/18 00:17:11;;;;;;;5.87;4.00;;;8.20;73.80;;;;;;5005216;28;20530;-43
2022/03/18 00:19:39;;;;;;;11.43;3.60;;;8.20;73.60;;;;;;5022777;28;20501;-43
2022/03/18 00:22:06;;;;;;;7.50;3.47;;;8.20;73.90;;;;;;5024008;28;20550;-43
2022/03/18 00:24:34;;;;;;;7.10;4.13;;;8.20;73.80;;;;;;5007323;28;20493;-43
2022/03/18 00:27:06;;;;;;;4.60;3.73;;;8.20;73.30;;;;;;5022720;28;20462;-43
2022/03/18 00:29:33;;;;;;;9.20;4.10;;;8.20;73.80;;;;;;5026617;28;20470;-44
2022/03/18 00:32:00;;;;;;;9.43;3.83;;;8.20;73.80;;;;;;5026692;28;20444;-43
2022/03/18 00:34:32;;;;;;;9.27;3.50;;;8.20;73.90;;;;;;5010681;28;20444;-44
2022/03/18 00:36:59;;;;;;;12.80;3.43;;;8.20;73.80;;;;;;5026212;28;20940;-43
2022/03/18 00:39:25;;;;;;;7.07;4.10;;;8.20;73.10;;;;;;5005112;28;20676;-43
2022/03/18 00:41:52;;;;;;;8.67;4.30;;;8.20;73.30;;;;;;5007215;28;20820;-43
2022/03/18 00:44:20;;;;;;;14.33;4.80;;;8.20;73.70;;;;;;5027087;28;20491;-43
2022/03/18 00:46:47;;;;;;;6.10;3.80;;;8.10;73.70;;;;;;5026613;28;20479;-44
2022/03/18 00:52:05;;;;;;;10.47;4.80;;;8.10;73.80;;;;;;5025476;28;20795;-43
2022/03/18 00:54:45;;;;;;;5.07;4.00;;;8.10;73.70;;;;;;5025630;28;20448;-44
2022/03/18 00:57:13;;;;;;;4.77;4.47;;;8.10;74.20;;;;;;5011322;28;20881;-44
2022/03/18 00:59:40;;;;;;;5.67;4.23;;;8.10;74.10;;;;;;5023213;28;20466;-43
2022/03/18 01:02:06;;;;;;;6.20;3.80;;;8.10;73.80;;;;;;5007202;28;20952;-43
2022/03/18 01:04:34;;;;;;;5.77;4.17;;;8.10;74.20;;;;;;5025317;28;20487;-43
2022/03/18 01:07:00;;;;;;;8.60;4.00;;;8.10;74.50;;;;;;5005311;28;20459;-43
2022/03/18 01:09:27;;;;;;;9.20;3.57;;;8.10;74.00;;;;;;5025587;28;20470;-44
2022/03/18 01:11:55;;;;;;;5.77;3.70;;;8.10;74.20;;;;;;5016945;28;20559;-43
2022/03/18 01:14:22;;;;;;;6.63;4.13;;;8.10;74.20;;;;;;5023897;28;20456;-43
2022/03/18 01:16:49;;;;;;;8.47;4.23;;;8.10;74.40;;;;;;5010114;28;20455;-43
2022/03/18 01:19:16;;;;;;;7.10;4.23;;;8.10;74.20;;;;;;5024059;28;20961;-44
2022/03/18 01:21:43;;;;;;;9.70;4.10;;;8.10;74.70;;;;;;5013937;28;20452;-44
2022/03/18 01:24:10;;;;;;;9.97;4.00;;;8.10;74.90;;;;;;5026182;28;20495;-44
2022/03/18 01:26:38;;;;;;;7.70;4.67;;;8.10;74.70;;;;;;5023479;28;20893;-44
2022/03/18 01:29:05;;;;;;;9.07;3.87;;;8.00;74.80;;;;;;5024064;28;20462;-44
2022/03/18 01:31:31;;;;;;;6.00;4.37;;;8.00;74.80;;;;;;5006902;28;20444;-44
2022/03/18 01:33:58;;;;;;;5.87;3.90;;;8.00;74.80;;;;;;5019293;28;20474;-44
2022/03/18 01:36:25;;;;;;;13.83;5.27;;;8.00;74.60;;;;;;5020935;28;21139;-44
2022/03/18 01:38:52;;;;;;;4.93;4.43;;;8.00;74.40;;;;;;5020133;28;20495;-44
2022/03/18 01:41:19;;;;;;;8.00;4.03;;;8.00;74.80;;;;;;5017217;28;20502;-43
2022/03/18 01:43:47;;;;;;;9.03;5.90;;;8.00;75.10;;;;;;5022735;28;20491;-43
2022/03/18 01:46:16;;;;;;;6.20;4.30;;;8.00;75.10;;;;;;5020541;28;20513;-43
2022/03/18 01:48:44;;;;;;;5.87;4.20;;;7.90;75.20;;;;;;5019973;28;20551;-43
2022/03/18 01:51:15;;;;;;;9.27;4.77;;;8.00;75.20;;;;;;5017914;28;20464;-43
2022/03/18 01:53:44;;;;;;;13.43;5.67;;;7.90;75.20;;;;;;5021711;28;20906;-43
2022/03/18 01:56:12;;;;;;;9.10;6.40;;;7.90;75.40;;;;;;5024176;28;21011;-43
2022/03/18 01:58:38;;;;;;;14.67;6.57;;;7.90;75.30;;;;;;5021053;28;20548;-43
2022/03/18 02:01:05;;;;;;;8.27;6.00;;;7.90;75.30;;;;;;5023329;28;20460;-44
2022/03/18 02:03:32;;;;;;;8.50;5.57;;;7.90;75.20;;;;;;5037378;28;20482;-44
2022/03/18 02:05:59;;;;;;;6.90;5.07;;;7.90;75.30;;;;;;5023940;28;20447;-44
2022/03/18 02:08:26;;;;;;;9.40;6.77;;;7.90;75.60;;;;;;5019151;28;20460;-44
2022/03/18 02:10:53;;;;;;;8.80;6.27;;;7.80;75.50;;;;;;5004293;28;20463;-44
2022/03/18 02:13:20;;;;;;;8.30;6.70;;;7.80;75.30;;;;;;5022031;28;20456;-44
2022/03/18 02:15:46;;;;;;;12.50;6.50;;;7.80;75.70;;;;;;5024877;28;20458;-44
2022/03/18 02:18:13;;;;;;;6.93;6.20;;;7.80;75.70;;;;;;5022656;28;20452;-44
2022/03/18 02:20:40;;;;;;;9.13;5.00;;;7.80;75.90;;;;;;5024027;28;20456;-44
2022/03/18 02:23:06;;;;;;;10.40;5.77;;;7.70;75.90;;;;;;5022311;28;20570;-43
2022/03/18 02:25:33;;;;;;;13.13;6.07;;;7.70;76.10;;;;;;5034124;28;20858;-43
2022/03/18 02:28:03;;;;;;;12.43;5.57;;;7.70;76.30;;;;;;5019372;28;20566;-43
2022/03/18 02:30:33;;;;;;;6.53;4.90;;;7.70;76.30;;;;;;5022504;28;20454;-43
2022/03/18 02:33:01;;;;;;;12.20;5.37;;;7.70;76.20;;;;;;5021287;28;20513;-43
2022/03/18 02:35:29;;;;;;;11.40;4.73;;;7.70;76.30;;;;;;5023992;28;20440;-43
2022/03/18 02:37:57;;;;;;;7.93;5.43;;;7.70;76.40;;;;;;5018084;28;20566;-43
2022/03/18 02:40:26;;;;;;;7.70;5.43;;;7.60;76.50;;;;;;5020860;28;20487;-43
2022/03/18 02:42:53;;;;;;;5.43;4.50;;;7.60;76.50;;;;;;5020792;28;20893;-43
2022/03/18 02:45:20;;;;;;;5.90;5.27;;;7.60;76.70;;;;;;5022695;28;21045;-43
2022/03/18 02:47:47;;;;;;;13.20;5.77;;;7.70;76.50;;;;;;5023540;28;20483;-43
2022/03/18 02:50:15;;;;;;;9.57;5.03;;;7.60;76.50;;;;;;5003876;28;20456;-43
2022/03/18 02:52:43;;;;;;;10.80;5.30;;;7.60;76.60;;;;;;5020243;28;20484;-43
2022/03/18 02:55:10;;;;;;;9.63;4.10;;;7.60;76.80;;;;;;5020805;28;20467;-43
2022/03/18 02:57:38;;;;;;;6.50;4.30;;;7.50;76.90;;;;;;5016504;28;20455;-43
2022/03/18 03:00:06;;;;;;;7.00;4.27;;;7.50;77.00;;;;;;5003600;28;20986;-43
2022/03/18 03:02:34;;;;;;;8.00;4.33;;;7.60;76.90;;;;;;5013552;28;20462;-43
2022/03/18 03:07:59;;;;;;;4.30;3.50;;;7.50;76.60;;;;;;5016030;28;20778;-43
2022/03/18 03:10:31;;;;;;;7.20;5.00;;;7.50;76.70;;;;;;5019903;28;20468;-43
2022/03/18 03:12:59;;;;;;;12.07;6.23;;;7.50;76.90;;;;;;5019536;28;20471;-43
2022/03/18 03:15:26;;;;;;;9.40;5.57;;;7.50;77.00;;;;;;5015761;28;20468;-43
2022/03/18 03:17:53;;;;;;;7.17;4.53;;;7.50;77.00;;;;;;5018181;28;20463;-43
2022/03/18 03:20:20;;;;;;;7.17;4.67;;;7.40;77.30;;;;;;5017465;28;21020;-43
2022/03/18 03:22:47;;;;;;;8.33;4.77;;;7.40;77.30;;;;;;5017782;28;20455;-43
2022/03/18 03:25:14;;;;;;;6.37;4.70;;;7.40;77.10;;;;;;5018705;28;20493;-43
2022/03/18 03:27:40;;;;;;;11.60;4.10;;;7.40;77.10;;;;;;5013918;28;20467;-43
2022/03/18 03:30:09;;;;;;;5.60;4.40;;;7.40;77.40;;;;;;5017868;28;20455;-43
2022/03/18 03:32:37;;;;;;;6.20;4.43;;;7.40;77.10;;;;;;5020044;28;20502;-43
2022/03/18 03:35:05;;;;;;;6.33;4.07;;;7.40;76.90;;;;;;5020778;28;21015;-46
2022/03/18 03:37:33;;;;;;;11.50;5.10;;;7.40;77.30;;;;;;5034517;28;20891;-46
2022/03/18 03:40:00;;;;;;;7.53;4.33;;;7.40;77.30;;;;;;5015698;28;20459;-47
2022/03/18 03:42:27;;;;;;;11.77;4.40;;;7.40;77.30;;;;;;5015220;28;20582;-46
2022/03/18 03:44:54;;;;;;;9.13;4.77;;;7.40;76.60;;;;;;5019718;28;20498;-47
2022/03/18 03:47:21;;;;;;;5.27;4.07;;;7.40;76.70;;;;;;5031079;28;20585;-46
2022/03/18 03:49:47;;;;;;;6.27;4.10;;;7.40;76.70;;;;;;4998991;28;20460;-46
2022/03/18 03:52:15;;;;;;;7.40;3.40;;;7.30;76.80;;;;;;5012231;28;21088;-46
2022/03/18 03:54:42;;;;;;;7.30;4.17;;;7.40;76.80;;;;;;5012388;28;20502;-43
2022/03/18 03:57:09;;;;;;;6.87;4.23;;;7.30;77.00;;;;;;5016135;28;20459;-43
2022/03/18 03:59:36;;;;;;;10.33;4.57;;;7.30;77.20;;;;;;5019367;28;20965;-43
2022/03/18 04:02:03;;;;;;;6.30;3.93;;;7.30;76.90;;;;;;5014991;28;20498;-43
2022/03/18 04:04:31;;;;;;;7.60;4.10;;;7.30;77.10;;;;;;5021988;28;20761;-43
2022/03/18 04:06:59;;;;;;;7.73;5.03;;;7.30;77.10;;;;;;5005984;28;22325;-43
2022/03/18 04:09:26;;;;;;;10.47;3.70;;;7.30;77.00;;;;;;5020501;28;20499;-42
2022/03/18 04:11:53;;;;;;;6.83;4.40;;;7.30;77.20;;;;;;5023926;28;20475;-42
2022/03/18 04:14:20;;;;;;;9.80;4.53;;;7.30;77.20;;;;;;5005809;28;20463;-42
2022/03/18 04:16:47;;;;;;;8.03;4.17;;;7.30;76.40;;;;;;5021142;28;20467;-42
2022/03/18 04:19:14;;;;;;;9.70;4.30;;;7.30;76.70;;;;;;5018419;28;20459;-42
2022/03/18 04:21:42;;;;;;;8.00;3.97;;;7.30;76.70;;;;;;5020124;28;20466;-42
2022/03/18 04:24:09;;;;;;;6.40;3.90;;;7.20;76.90;;;;;;5004483;28;20490;-43
2022/03/18 04:26:41;;;;;;;10.40;4.30;;;7.20;76.90;;;;;;5008216;28;21120;-42
2022/03/18 04:29:08;;;;;;;6.60;4.03;;;7.20;76.80;;;;;;5017429;28;20470;-42
2022/03/18 04:31:35;;;;;;;8.10;4.40;;;7.30;76.50;;;;;;5015857;28;20459;-42
2022/03/18 04:34:03;;;;;;;5.73;4.27;;;7.30;76.50;;;;;;5022415;28;20551;-42
2022/03/18 04:36:30;;;;;;;8.00;3.83;;;7.30;76.30;;;;;;5020229;28;20557;-42
2022/03/18 04:38:56;;;;;;;14.53;5.13;;;7.30;76.00;;;;;;5021901;28;20475;-42
2022/03/18 04:41:23;;;;;;;5.17;3.80;;;7.30;76.20;;;;;;4999729;28;20471;-43
2022/03/18 04:43:50;;;;;;;7.63;4.23;;;7.30;76.00;;;;;;5019546;28;20902;-42
2022/03/18 04:46:17;;;;;;;9.30;5.23;;;7.30;75.80;;;;;;5004960;28;20558;-42
2022/03/18 04:48:43;;;;;;;7.43;4.57;;;7.30;76.20;;;;;;5018732;28;20481;-42
2022/03/18 04:51:10;;;;;;;8.37;4.63;;;7.20;76.20;;;;;;5019763;28;20456;-42
2022/03/18 04:53:39;;;;;;;10.47;5.07;;;7.20;76.30;;;;;;5019736;28;20467;-42
2022/03/18 04:57:15;;;;;;;6.80;4.20;;;7.20;76.20;;;;;;5015449;28;20570;-42
2022/03/18 04:58:52;;;;;;;8.27;4.40;;;7.30;76.10;;;;;;5019361;28;20459;-43
2022/03/18 05:01:20;;;;;;;7.27;4.37;;;7.30;75.80;;;;;;5020296;28;20456;-43
2022/03/18 05:03:47;;;;;;;8.60;4.60;;;7.20;75.80;;;;;;5008923;28;20467;-43
2022/03/18 05:06:14;;;;;;;7.00;4.60;;;7.20;76.10;;;;;;5016699;28;20471;-43
2022/03/18 05:08:42;;;;;;;6.83;3.80;;;7.20;76.00;;;;;;5018732;28;20459;-44
2022/03/18 05:11:12;;;;;;;4.93;3.93;;;7.20;76.00;;;;;;5021370;28;20467;-44
2022/03/18 05:13:39;;;;;;;6.47;4.00;;;7.20;76.20;;;;;;5003025;28;20464;-44
2022/03/18 05:16:06;;;;;;;7.83;4.30;;;7.20;76.00;;;;;;5019484;28;20814;-44
2022/03/18 05:18:33;;;;;;;13.33;4.00;;;7.20;75.80;;;;;;5018581;28;20455;-44
2022/03/18 05:21:00;;;;;;;8.13;4.03;;;7.20;75.70;;;;;;5019852;28;20463;-44
2022/03/18 05:23:26;;;;;;;4.90;3.67;;;7.10;76.00;;;;;;5022835;28;20456;-44
2022/03/18 05:25:53;;;;;;;7.97;4.27;;;7.10;76.10;;;;;;5021777;28;20515;-44
2022/03/18 05:28:20;;;;;;;8.83;4.10;;;7.10;76.20;;;;;;5020107;28;20463;-44
2022/03/18 05:30:47;;;;;;;5.40;3.70;;;7.10;75.90;;;;;;5016217;28;20478;-44
2022/03/18 05:33:14;;;;;;;11.57;4.83;;;7.10;75.20;;;;;;4999856;28;20544;-44
2022/03/18 05:35:41;;;;;;;8.67;4.00;;;7.10;74.40;;;;;;5031257;28;20471;-44
2022/03/18 05:38:07;;;;;;;9.20;4.20;;;7.10;75.20;;;;;;5017211;28;20832;-44
2022/03/18 05:40:34;;;;;;;8.33;4.13;;;7.10;75.20;;;;;;5019704;28;20460;-44
2022/03/18 05:43:01;;;;;;;7.30;4.27;;;7.10;75.20;;;;;;5020396;28;20836;-44
2022/03/18 05:45:27;;;;;;;6.70;3.40;;;7.10;74.40;;;;;;5018670;28;20491;-44
2022/03/18 05:47:54;;;;;;;4.50;3.70;;;7.10;73.80;;;;;;5018874;28;20490;-44
2022/03/18 05:50:21;;;;;;;5.73;3.67;;;7.10;74.20;;;;;;5018205;28;20460;-44
2022/03/18 05:52:48;;;;;;;9.13;3.90;;;7.10;74.20;;;;;;5020339;28;20451;-44
2022/03/18 05:55:15;;;;;;;9.47;3.70;;;7.10;72.80;;;;;;5018701;28;20754;-44
2022/03/18 05:57:42;;;;;;;7.07;3.00;;;7.10;72.90;;;;;;5015804;28;20543;-44
2022/03/18 06:00:10;;;;;;;5.80;3.33;;;7.00;73.30;;;;;;5004422;28;20498;-44
2022/03/18 06:02:37;;;;;;;4.83;3.37;;;7.10;72.10;;;;;;5003904;28;20463;-44
2022/03/18 06:05:04;;;;;;;6.60;3.30;;;7.10;72.60;;;;;;5009500;28;20625;-44
2022/03/18 06:07:31;;;;;;;10.03;3.10;;;7.10;72.00;;;;;;5002331;28;20475;-44
2022/03/18 06:12:49;;;;;;;4.90;2.90;;;7.10;71.10;;;;;;5017503;28;20510;-44
2022/03/18 06:15:16;;;;;;;4.13;2.50;;;7.10;71.60;;;;;;5005161;28;20995;-44
2022/03/18 06:17:42;;;;;;;6.63;3.30;;;7.10;72.10;;;;;;5018679;28;20462;-44
2022/03/18 06:20:09;;;;;;;10.80;3.20;;;7.20;71.00;;;;;;5012432;28;20472;-44
2022/03/18 06:22:36;;;;;;;5.77;3.10;;;7.20;71.10;;;;;;5015944;28;20462;-44
2022/03/18 06:25:03;;;;;;;6.17;3.27;;;7.20;71.10;;;;;;5018997;28;20484;-44
2022/03/18 06:27:30;;;;;;;11.20;4.37;;;7.20;71.60;;;;;;5006209;28;20976;-44
2022/03/18 06:29:57;;;;;;;3.53;3.00;;;7.20;71.90;;;;;;5020338;28;20459;-44
2022/03/18 06:32:24;;;;;;;6.30;3.20;;;7.20;71.90;;;;;;5018296;28;21235;-44
2022/03/18 06:34:51;;;;;;;9.30;3.30;;;7.20;72.20;;;;;;5017794;28;20459;-44
2022/03/18 06:37:17;;;;;;;12.93;3.80;;;7.30;72.70;;;;;;5019470;28;20463;-44
2022/03/18 06:39:44;;;;;;;6.50;3.60;;;7.30;72.30;;;;;;5017192;28;20468;-44
2022/03/18 06:42:11;;;;;;;5.50;3.13;;;7.30;73.00;;;;;;5021683;28;20459;-44
2022/03/18 06:44:38;;;;;;;9.63;3.30;;;7.40;72.50;;;;;;5014856;28;20491;-44
2022/03/18 06:47:05;;;;;;;7.80;4.40;;;7.40;72.30;;;;;;5015549;28;20495;-44
2022/03/18 06:49:32;;;;;;;5.77;3.63;;;7.40;72.40;;;;;;5019817;28;20463;-44
2022/03/18 06:51:59;;;;;;;6.23;3.60;;;7.50;72.50;;;;;;5002071;28;20791;-44
2022/03/18 06:54:26;;;;;;;8.00;4.93;;;7.40;72.60;;;;;;5013448;28;20959;-44
2022/03/18 06:56:53;;;;;;;9.90;4.30;;;7.50;73.10;;;;;;5012215;28;20475;-44
2022/03/18 06:59:19;;;;;;;6.90;4.10;;;7.50;73.00;;;;;;5018209;28;20475;-44
2022/03/18 07:01:46;;;;;;;5.60;3.53;;;7.50;72.90;;;;;;5018007;28;20483;-44
2022/03/18 07:04:13;;;;;;;12.77;4.97;;;7.60;73.20;;;;;;5016928;28;20459;-44
2022/03/18 07:06:43;;;;;;;7.57;4.23;;;7.70;73.00;;;;;;4996995;28;20985;-44
2022/03/18 07:09:10;;;;;;;9.47;4.77;;;7.70;72.70;;;;;;5014383;28;20463;-44
2022/03/18 07:11:37;;;;;;;12.93;5.07;;;7.80;72.50;;;;;;5017565;28;20456;-44
2022/03/18 07:14:04;;;;;;;6.80;4.37;;;7.80;72.40;;;;;;5002651;28;20706;-43
2022/03/18 07:19:16;;;;;;;11.40;4.77;;;7.90;72.10;;;;;;5014646;28;20551;-42
2022/03/18 07:21:43;;;;;;;8.30;4.60;;;7.90;71.80;;;;;;5014463;28;20860;-42
2022/03/18 07:24:10;;;;;;;14.83;5.70;;;8.00;71.40;;;;;;5013535;28;20479;-43
2022/03/18 07:26:37;;;;;;;9.00;4.53;;;8.00;71.80;;;;;;5018181;28;20891;-43
2022/03/18 07:29:05;;;;;;;9.90;5.53;;;8.00;71.60;;;;;;5015925;28;20466;-43
2022/03/18 07:31:32;;;;;;;12.97;6.63;;;8.10;71.60;;;;;;5014384;28;20504;-43
2022/03/18 07:33:59;;;;;;;14.57;6.03;;;8.10;71.50;;;;;;5028947;28;20991;-43
2022/03/18 07:36:26;;;;;;;9.37;4.87;;;8.20;71.50;;;;;;5020461;28;20463;-43
2022/03/18 07:38:52;;;;;;;9.00;6.07;;;8.20;71.50;;;;;;5014804;28;20941;-43
2022/03/18 07:41:19;;;;;;;9.77;5.97;;;8.20;71.60;;;;;;5024000;28;20854;-43
2022/03/18 07:43:46;;;;;;;11.87;6.30;;;8.30;71.10;;;;;;5008513;28;20466;-43
2022/03/18 07:46:13;;;;;;;11.10;6.70;;;8.30;70.60;;;;;;5029922;28;20483;-44
2022/03/18 07:48:43;;;;;;;10.33;5.40;;;8.30;70.80;;;;;;5024451;28;20474;-43
2022/03/18 07:51:09;;;;;;;18.13;6.10;;;8.30;70.50;;;;;;5007985;28;20450;-43
2022/03/18 07:53:37;;;;;;;9.57;6.23;;;8.40;70.70;;;;;;5022372;28;20463;-44
2022/03/18 07:56:04;;;;;;;12.53;7.40;;;8.40;70.40;;;;;;5019180;28;20456;-44
2022/03/18 07:58:31;;;;;;;9.53;6.60;;;8.50;70.00;;;;;;4999873;28;20466;-44
2022/03/18 08:00:58;;;;;;;10.30;5.97;;;8.50;70.10;;;;;;5021620;28;20467;-44
2022/03/18 08:03:25;;;;;;;15.30;6.23;;;8.60;69.70;;;;;;5014910;28;21093;-43
2022/03/18 08:05:52;;;;;;;9.90;7.00;;;8.60;70.10;;;;;;5023468;28;20513;-43
2022/03/18 08:08:19;;;;;;;9.70;5.73;;;8.70;69.10;;;;;;5004546;28;21074;-43
2022/03/18 08:10:46;;;;;;;12.00;6.37;;;8.80;69.30;;;;;;5026008;28;20467;-43
2022/03/18 08:13:15;;;;;;;15.90;7.47;;;8.80;68.80;;;;;;5021452;28;20529;-43
2022/03/18 08:15:44;;;;;;;12.80;5.90;;;8.90;68.60;;;;;;5007575;28;20461;-43
2022/03/18 08:18:12;;;;;;;13.27;6.63;;;9.10;68.60;;;;;;5017157;28;20905;-43
2022/03/18 08:20:42;;;;;;;6.83;5.90;;;9.20;67.70;;;;;;5036900;28;20502;-43
2022/03/18 08:23:14;;;;;;;13.07;6.17;;;9.30;67.10;;;;;;4993155;28;20828;-43
2022/03/18 08:25:41;;;;;;;11.83;6.43;;;9.40;66.70;;;;;;5026448;28;20493;-43
2022/03/18 08:28:08;;;;;;;9.87;5.40;;;9.40;66.90;;;;;;5025350;28;20746;-43
2022/03/18 08:30:36;;;;;;;9.43;6.43;;;9.50;66.30;;;;;;5029737;28;20454;-43
2022/03/18 08:33:03;;;;;;;14.30;6.47;;;9.60;65.70;;;;;;5023097;28;20455;-43
2022/03/18 08:35:30;;;;;;;9.20;5.83;;;9.70;65.60;;;;;;5027640;28;20447;-44
2022/03/18 08:37:57;;;;;;;10.10;6.27;;;9.70;65.40;;;;;;5026934;28;20473;-43
2022/03/18 08:40:25;;;;;;;7.00;6.30;;;9.80;64.70;;;;;;5026532;28;20594;-43
2022/03/18 08:42:54;;;;;;;12.73;6.73;;;9.80;64.40;;;;;;5025001;28;20486;-43
2022/03/18 08:45:21;;;;;;;9.20;5.43;;;9.80;63.50;;;;;;5025107;28;20486;-43
2022/03/18 08:47:49;;;;;;;7.23;5.43;;;9.80;63.80;;;;;;5024328;28;20480;-44
2022/03/18 08:50:16;;;;;;;10.23;5.70;;;9.90;63.90;;;;;;5024894;28;20485;-44
2022/03/18 08:52:45;;;;;;;11.40;5.07;;;10.00;63.70;;;;;;5021080;28;20466;-44
2022/03/18 08:55:12;;;;;;;10.33;5.20;;;10.10;63.00;;;;;;5023020;28;20948;-44
2022/03/18 08:57:40;;;;;;;10.73;6.00;;;10.20;62.80;;;;;;5005536;28;20458;-44
2022/03/18 09:00:14;;;;;;;9.87;5.60;;;10.40;62.00;;;;;;5004336;28;20449;-44
2022/03/18 09:02:43;;;;;;;9.80;4.80;;;10.50;61.30;;;;;;5008024;28;20545;-44
2022/03/18 09:05:11;;;;;;;4.33;3.87;;;10.70;61.40;;;;;;5024020;28;20490;-44
2022/03/18 09:07:38;;;;;;;6.00;3.70;;;10.90;59.80;;;;;;5022121;28;20463;-44
2022/03/18 09:10:07;;;;;;;8.43;4.80;;;11.00;58.50;;;;;;5021855;28;20454;-44
2022/03/18 09:12:33;;;;;;;7.60;4.10;;;11.10;57.90;;;;;;5023756;28;20440;-44
2022/03/18 09:15:03;;;;;;;6.67;3.60;;;11.20;57.00;;;;;;5007696;28;20976;-44
2022/03/18 09:17:30;;;;;;;6.43;3.60;;;11.30;56.80;;;;;;5024137;28;20447;-43
2022/03/18 09:19:57;;;;;;;7.53;3.63;;;11.30;55.90;;;;;;5023915;28;20474;-43
2022/03/18 09:22:23;;;;;;;4.30;3.63;;;11.40;55.20;;;;;;5022255;28;20496;-43
2022/03/18 09:24:50;;;;;;;7.63;4.57;;;11.40;54.90;;;;;;5020384;28;20952;-44
2022/03/18 09:27:17;;;;;;;4.90;3.70;;;11.40;54.70;;;;;;5023398;28;20464;-43
2022/03/18 09:29:44;;;;;;;6.27;3.90;;;11.30;54.30;;;;;;5008397;28;20479;-44
2022/03/18 09:32:10;;;;;;;8.90;3.20;;;11.30;54.70;;;;;;5039578;28;20451;-43
2022/03/18 09:34:37;;;;;;;6.10;4.20;;;11.30;54.00;;;;;;5022097;28;20502;-43
2022/03/18 09:37:04;;;;;;;7.47;3.70;;;11.20;55.50;;;;;;5022759;28;20828;-43
2022/03/18 09:39:32;;;;;;;4.97;3.17;;;11.20;53.90;;;;;;5004569;28;20452;-44
2022/03/18 09:42:02;;;;;;;4.50;2.67;;;11.20;54.00;;;;;;5022806;28;20995;-44
2022/03/18 09:44:34;;;;;;;4.73;2.97;;;11.10;54.30;;;;;;5005604;28;20459;-44
2022/03/18 09:47:01;;;;;;;4.80;2.80;;;11.10;53.80;;;;;;5005489;28;20924;-44
2022/03/18 09:49:29;;;;;;;4.90;3.33;;;11.00;53.90;;;;;;5035918;28;20563;-44
2022/03/18 09:51:56;;;;;;;4.30;3.10;;;11.00;53.20;;;;;;5023309;28;20486;-44
2022/03/18 09:54:23;;;;;;;4.47;3.33;;;11.00;53.40;;;;;;5021919;28;20794;-44
2022/03/18 09:56:50;;;;;;;5.23;3.10;;;11.10;54.00;;;;;;5024479;28;20452;-43
2022/03/18 09:59:17;;;;;;;5.53;3.30;;;11.20;54.00;;;;;;5021459;28;20493;-44
2022/03/18 10:01:44;;;;;;;4.50;3.27;;;11.30;53.70;;;;;;5020810;28;20549;-43
2022/03/18 10:04:11;;;;;;;5.20;3.20;;;11.40;52.80;;;;;;5013357;28;20842;-43
2022/03/18 10:06:43;;;;;;;4.43;3.00;;;11.50;52.80;;;;;;5007035;28;21017;-43
2022/03/18 10:09:11;;;;;;;4.93;3.10;;;11.60;53.60;;;;;;5021841;28;21019;-43
2022/03/18 10:11:42;;;;;;;5.23;3.40;;;11.70;52.90;;;;;;5008568;28;20899;-43
2022/03/18 10:14:15;;;;;;;9.40;3.87;;;11.80;52.60;;;;;;5006770;28;20538;-43
2022/03/18 10:16:54;;;;;;;3.17;2.80;;;11.90;52.90;;;;;;5022807;28;20510;-44
2022/03/18 10:19:24;;;;;;;5.87;2.50;;;11.90;51.90;;;;;;5021952;28;20466;-44
2022/03/18 10:21:57;;;;;;;6.73;2.80;;;11.90;52.20;;;;;;5023036;28;20609;-44
2022/03/18 10:24:27;;;;;;;6.50;3.10;;;12.00;52.20;;;;;;5020819;28;20466;-44
2022/03/18 10:27:08;;;;;;;6.33;3.30;;;12.00;52.00;;;;;;5018999;28;20487;-43
2022/03/18 10:29:50;;;;;;;5.43;2.70;;;12.10;51.30;;;;;;5021995;28;20456;-43
2022/03/18 10:32:18;;;;;;;4.87;2.63;;;12.10;50.50;;;;;;5020561;28;20451;-43
2022/03/18 10:37:50;;;;;;;5.87;3.23;;;12.40;51.20;;;;;;5020020;28;20976;-43
2022/03/18 10:40:31;;;;;;;9.43;3.70;;;12.50;49.00;;;;;;5020474;28;20827;-43
2022/03/18 10:43:02;;;;;;;7.83;2.80;;;12.70;48.80;;;;;;5021576;28;20952;-44
2022/03/18 10:45:29;;;;;;;3.97;2.67;;;12.80;49.10;;;;;;5018862;28;20491;-44
2022/03/18 10:48:13;;;;;;;3.37;2.67;;;12.90;47.70;;;;;;5020525;28;20494;-44
2022/03/18 10:50:40;;;;;;;3.27;2.43;;;13.10;48.80;;;;;;5007018;28;20937;-43
2022/03/18 10:53:10;;;;;;;5.60;2.20;;;13.40;47.50;;;;;;5022085;28;20511;-44
2022/03/18 10:55:39;;;;;;;6.00;2.40;;;13.80;47.10;;;;;;5003350;28;20456;-44
2022/03/18 10:58:11;;;;;;;6.00;3.07;;;13.90;45.30;;;;;;5019776;28;20460;-44
2022/03/18 11:00:46;;;;;;;6.50;2.93;;;14.00;45.90;;;;;;5017425;28;20455;-43
2022/03/18 11:03:16;;;;;;;3.23;2.50;;;14.00;46.00;;;;;;5021827;28;20454;-44
2022/03/18 11:05:51;;;;;;;5.67;2.87;;;14.10;46.50;;;;;;5017576;28;20590;-43
2022/03/18 11:08:23;;;;;;;5.63;2.60;;;14.30;46.30;;;;;;5021385;28;20452;-44
2022/03/18 11:13:53;;;;;;;4.33;2.90;;;14.50;45.60;;;;;;5019272;28;20444;-44
2022/03/18 11:16:29;;;;;;;5.93;2.47;;;14.90;44.90;;;;;;5017614;28;20451;-44
2022/03/18 11:19:01;;;;;;;5.83;2.67;;;15.20;44.50;;;;;;5019905;28;20956;-44
2022/03/18 11:21:38;;;;;;;4.20;2.70;;;15.40;43.40;;;;;;5019477;28;20453;-44
2022/03/18 11:24:06;;;;;;;3.80;2.53;;;15.50;44.30;;;;;;5020242;28;20443;-44
2022/03/18 11:26:35;;;;;;;3.87;2.73;;;15.60;43.70;;;;;;5021023;28;21058;-44
2022/03/18 11:29:07;;;;;;;4.23;3.00;;;15.60;44.10;;;;;;5021527;28;20562;-44
2022/03/18 11:31:33;;;;;;;4.93;3.20;;;15.50;42.80;;;;;;5004781;28;20463;-44
2022/03/18 11:34:15;;;;;;;3.23;2.93;;;15.40;43.90;;;;;;5019476;28;21041;-44
2022/03/18 11:37:04;;;;;;;5.00;2.90;;;15.40;44.00;;;;;;5021842;28;20453;-44
2022/03/18 11:39:31;;;;;;;6.63;2.70;;;15.40;43.30;;;;;;5019857;28;20538;-44
2022/03/18 11:42:07;;;;;;;5.97;2.80;;;15.40;42.10;;;;;;5019510;28;20539;-44
2022/03/18 11:44:41;;;;;;;4.60;2.87;;;15.30;43.60;;;;;;5019961;28;21035;-43
2022/03/18 11:47:22;;;;;;;6.53;3.47;;;15.20;43.00;;;;;;5021578;28;20491;-44
2022/03/18 11:50:36;;;;;;;4.47;3.47;;;15.10;44.00;;;;;;5018279;28;20459;-44
2022/03/18 11:53:03;;;;;;;5.23;2.97;;;15.10;44.60;;;;;;5020548;28;20654;-43
2022/03/18 11:55:30;;;;;;;8.80;3.07;;;15.10;45.00;;;;;;5019236;28;20479;-43
2022/03/18 11:58:30;;;;;;;5.10;3.27;;;15.20;45.10;;;;;;5019191;28;20451;-43
2022/03/18 12:00:57;;;;;;;4.10;2.97;;;15.30;45.20;;;;;;5021474;28;20451;-43
2022/03/18 12:03:29;;;;;;;3.30;2.90;;;15.40;44.40;;;;;;5005143;28;20466;-43
2022/03/18 12:05:58;;;;;;;4.90;3.70;;;15.50;43.80;;;;;;5018700;28;20817;-43
2022/03/18 12:08:51;;;;;;;6.33;3.00;;;15.60;43.40;;;;;;5004779;28;20542;-43
2022/03/18 12:11:36;;;;;;;6.70;3.67;;;15.60;43.10;;;;;;5020975;28;20463;-43
2022/03/18 12:14:09;;;;;;;4.27;3.00;;;15.50;42.10;;;;;;5025252;28;20458;-43
2022/03/18 12:16:36;;;;;;;5.83;3.67;;;15.50;43.00;;;;;;5022246;28;20817;-43
2022/03/18 12:19:23;;;;;;;4.33;3.20;;;15.50;43.50;;;;;;5019481;28;20975;-43
2022/03/18 12:21:50;;;;;;;8.63;3.73;;;15.60;44.20;;;;;;5020417;28;20474;-43
2022/03/18 12:24:17;;;;;;;6.50;4.10;;;15.70;44.40;;;;;;5010221;28;20458;-43
2022/03/18 12:26:44;;;;;;;7.50;3.43;;;15.70;41.80;;;;;;5024793;28;21152;-44
2022/03/18 12:29:18;;;;;;;6.63;3.27;;;15.70;43.40;;;;;;5026001;28;20457;-43
2022/03/18 12:31:46;;;;;;;6.33;3.17;;;15.70;42.70;;;;;;5023484;28;20456;-43
2022/03/18 12:34:15;;;;;;;5.27;3.10;;;15.80;42.70;;;;;;5023506;28;20518;-43
2022/03/18 12:36:44;;;;;;;9.33;3.23;;;15.90;42.90;;;;;;5036033;28;20463;-44
2022/03/18 12:39:13;;;;;;;5.17;4.70;;;16.00;42.10;;;;;;5025364;28;20452;-43
2022/03/18 12:41:42;;;;;;;6.40;3.30;;;16.00;42.40;;;;;;5005548;28;20466;-44
2022/03/18 12:44:29;;;;;;;5.33;2.80;;;16.10;42.80;;;;;;5037967;28;20450;-44
2022/03/18 12:46:58;;;;;;;5.60;2.70;;;16.20;42.80;;;;;;5017160;28;20871;-44
2022/03/18 12:49:35;;;;;;;7.70;3.60;;;16.10;41.70;;;;;;5024313;28;20491;-44
2022/03/18 12:52:07;;;;;;;5.47;3.40;;;16.10;42.60;;;;;;5023428;28;20451;-44
2022/03/18 12:54:34;;;;;;;10.17;4.40;;;16.10;41.80;;;;;;5023515;28;20891;-44
2022/03/18 12:57:02;;;;;;;5.77;2.80;;;16.00;42.10;;;;;;5023980;28;20452;-44
2022/03/18 12:59:29;;;;;;;3.20;2.73;;;16.00;42.90;;;;;;5009311;28;20937;-44
2022/03/18 13:01:56;;;;;;;6.73;3.20;;;16.10;43.50;;;;;;5032094;28;20493;-44
2022/03/18 13:04:24;;;;;;;3.10;2.30;;;16.10;40.10;;;;;;5021805;28;20451;-44
2022/03/18 13:06:53;;;;;;;3.00;2.03;;;16.00;39.50;;;;;;5022128;28;20583;-44
2022/03/18 13:09:20;;;;;;;4.00;2.10;;;16.00;39.60;;;;;;5021631;28;20458;-44
2022/03/18 13:11:47;;;;;;;2.50;2.17;;;16.00;40.00;;;;;;5019531;28;20459;-44
2022/03/18 13:14:28;;;;;;;3.60;1.97;;;16.10;39.70;;;;;;5021315;28;20455;-44
2022/03/18 13:16:55;;;;;;;2.53;1.90;;;16.10;39.10;;;;;;5022935;28;20842;-44
2022/03/18 13:19:39;;;;;;;2.63;1.80;;;16.20;38.90;;;;;;5023350;28;20551;-44